createdAt,value
2022-09-16T00:00:25.709Z,11.50
2022-09-16T00:02:53.636Z,11.40
2022-09-16T00:05:21.026Z,11.40
2022-09-16T00:07:47.816Z,11.40
2022-09-16T00:10:14.840Z,11.40
2022-09-16T00:12:41.881Z,11.30
2022-09-16T00:15:09.967Z,11.30
2022-09-16T00:17:37.889Z,11.30
2022-09-16T00:20:06.001Z,11.40
2022-09-16T00:22:33.225Z,11.40
2022-09-16T00:24:59.848Z,11.40
2022-09-16T00:27:26.947Z,11.40
2022-09-16T00:29:53.749Z,11.50
2022-09-16T00:32:20.493Z,11.50
2022-09-16T00:34:47.122Z,11.50
2022-09-16T00:37:13.740Z,11.60
2022-09-16T00:39:40.439Z,11.60
2022-09-16T00:42:07.134Z,11.60
2022-09-16T00:44:52.971Z,11.60
2022-09-16T00:47:37.827Z,11.60
2022-09-16T00:50:12.184Z,11.50
2022-09-16T00:52:41.535Z,11.50
2022-09-16T00:55:11.248Z,11.60
2022-09-16T00:57:39.706Z,11.60
2022-09-16T01:00:09.608Z,11.50
2022-09-16T01:02:36.316Z,11.60
2022-09-16T01:05:07.932Z,11.60
2022-09-16T01:07:44.753Z,11.60
2022-09-16T01:10:14.196Z,11.60
2022-09-16T01:12:43.523Z,11.60
2022-09-16T01:15:10.976Z,11.60
2022-09-16T01:17:58.809Z,11.60
2022-09-16T01:20:40.307Z,11.60
2022-09-16T01:23:40.867Z,11.60
2022-09-16T01:26:16.544Z,11.60
2022-09-16T01:29:17.079Z,11.60
2022-09-16T01:32:04.237Z,11.60
2022-09-16T01:35:04.706Z,11.60
2022-09-16T01:38:03.443Z,11.60
2022-09-16T01:41:15.794Z,11.60
2022-09-16T01:44:09.879Z,11.70
2022-09-16T01:46:46.946Z,11.70
2022-09-16T01:49:41.235Z,11.70
2022-09-16T01:52:21.683Z,11.70
2022-09-16T01:54:59.508Z,11.70
2022-09-16T01:57:45.412Z,11.70
2022-09-16T02:00:14.393Z,11.60
2022-09-16T02:02:43.892Z,11.60
2022-09-16T02:05:20.231Z,11.60
2022-09-16T02:07:52.285Z,11.60
2022-09-16T02:10:38.187Z,11.50
2022-09-16T02:13:23.230Z,11.50
2022-09-16T02:15:52.534Z,11.50
2022-09-16T02:18:26.115Z,11.40
2022-09-16T02:20:54.545Z,11.40
2022-09-16T02:23:33.358Z,11.40
2022-09-16T02:26:01.570Z,11.40
2022-09-16T02:28:33.136Z,11.40
2022-09-16T02:31:05.314Z,11.40
2022-09-16T02:34:00.478Z,11.40
2022-09-16T02:36:28.732Z,11.40
2022-09-16T02:39:08.545Z,11.40
2022-09-16T02:41:40.416Z,11.50
2022-09-16T02:44:09.272Z,11.40
2022-09-16T02:46:55.471Z,11.50
2022-09-16T02:50:08.581Z,11.50
2022-09-16T02:53:18.191Z,11.60
2022-09-16T02:56:06.429Z,11.60
2022-09-16T02:58:36.408Z,11.50
2022-09-16T03:01:04.175Z,11.60
2022-09-16T03:03:30.914Z,11.60
2022-09-16T03:06:06.635Z,11.70
2022-09-16T03:08:34.558Z,11.60
2022-09-16T03:11:22.099Z,11.70
2022-09-16T03:14:18.118Z,11.70
2022-09-16T03:16:53.570Z,11.70
2022-09-16T03:19:26.180Z,11.60
2022-09-16T03:22:05.096Z,11.60
2022-09-16T03:24:58.386Z,11.60
2022-09-16T03:27:35.898Z,11.60
2022-09-16T03:30:10.676Z,11.60
2022-09-16T03:32:54.645Z,11.50
2022-09-16T03:35:37.027Z,11.50
2022-09-16T03:38:06.341Z,11.50
2022-09-16T03:40:33.915Z,11.50
2022-09-16T03:43:00.892Z,11.50
2022-09-16T03:45:27.530Z,11.40
2022-09-16T03:47:54.241Z,11.40
2022-09-16T03:50:21.714Z,11.40
2022-09-16T03:52:48.479Z,11.40
2022-09-16T03:55:16.839Z,11.40
2022-09-16T03:57:43.661Z,11.40
2022-09-16T04:00:11.093Z,11.40
2022-09-16T04:02:40.460Z,11.40
2022-09-16T04:05:08.809Z,11.40
2022-09-16T04:07:35.874Z,11.40
2022-09-16T04:10:02.938Z,11.50
2022-09-16T04:12:29.761Z,11.50
2022-09-16T04:14:56.596Z,11.50
2022-09-16T04:17:23.839Z,11.50
2022-09-16T04:19:51.181Z,11.50
2022-09-16T04:22:17.821Z,11.50
2022-09-16T04:24:44.458Z,11.50
2022-09-16T04:27:11.229Z,11.50
2022-09-16T04:29:37.829Z,11.50
2022-09-16T04:32:04.582Z,11.50
2022-09-16T04:34:32.420Z,11.50
2022-09-16T04:36:59.342Z,11.50
2022-09-16T04:39:25.997Z,11.50
2022-09-16T04:41:52.631Z,11.50
2022-09-16T04:44:19.314Z,11.50
2022-09-16T04:46:45.918Z,11.50
2022-09-16T04:49:12.867Z,11.50
2022-09-16T04:51:39.622Z,11.50
2022-09-16T04:54:06.613Z,11.50
2022-09-16T04:56:33.293Z,11.50
2022-09-16T04:59:02.462Z,11.50
2022-09-16T05:01:35.688Z,11.50
2022-09-16T05:04:05.275Z,11.50
2022-09-16T05:06:38.453Z,11.50
2022-09-16T05:09:05.684Z,11.50
2022-09-16T05:11:35.875Z,11.50
2022-09-16T05:14:04.998Z,11.50
2022-09-16T05:16:32.899Z,11.50
2022-09-16T05:19:01.575Z,11.50
2022-09-16T05:21:28.868Z,11.50
2022-09-16T05:23:59.431Z,11.50
2022-09-16T05:26:28.643Z,11.40
2022-09-16T05:28:55.297Z,11.30
2022-09-16T05:31:27.028Z,11.30
2022-09-16T05:33:59.064Z,11.30
2022-09-16T05:36:26.164Z,11.30
2022-09-16T05:39:18.125Z,11.30
2022-09-16T05:41:40.093Z,11.30
2022-09-16T05:44:06.855Z,11.20
2022-09-16T05:46:33.984Z,11.20
2022-09-16T05:49:00.786Z,11.30
2022-09-16T05:51:28.717Z,11.30
2022-09-16T05:53:55.896Z,11.40
2022-09-16T05:56:29.000Z,11.50
2022-09-16T05:58:59.909Z,11.50
2022-09-16T06:01:32.424Z,11.60
2022-09-16T06:04:02.223Z,11.90
2022-09-16T06:06:36.907Z,12.40
2022-09-16T06:09:24.130Z,12.80
2022-09-16T06:11:56.854Z,12.90
2022-09-16T06:14:25.046Z,12.70
2022-09-16T06:16:51.678Z,12.50
2022-09-16T06:19:18.887Z,12.40
2022-09-16T06:21:46.588Z,12.30
2022-09-16T06:24:14.494Z,12.30
2022-09-16T06:26:43.446Z,12.50
2022-09-16T06:29:10.606Z,13.30
2022-09-16T06:31:38.433Z,13.70
2022-09-16T06:34:05.773Z,13.40
2022-09-16T06:36:41.574Z,13.00
2022-09-16T06:39:13.094Z,12.70
2022-09-16T06:41:39.800Z,12.60
2022-09-16T06:44:06.435Z,12.50
2022-09-16T06:46:33.039Z,12.50
2022-09-16T06:49:05.089Z,12.40
2022-09-16T06:51:33.154Z,12.40
2022-09-16T06:54:02.241Z,12.40
2022-09-16T06:56:29.017Z,12.40
2022-09-16T06:58:56.031Z,12.30
2022-09-16T07:01:25.985Z,12.30
2022-09-16T07:03:54.225Z,12.30
2022-09-16T07:06:37.278Z,12.30
2022-09-16T07:09:11.148Z,12.40
2022-09-16T07:11:37.836Z,12.50
2022-09-16T07:14:05.011Z,12.70
2022-09-16T07:16:31.849Z,12.80
2022-09-16T07:19:01.175Z,13.60
2022-09-16T07:21:30.224Z,14.40
2022-09-16T07:23:59.390Z,15.00
2022-09-16T07:26:28.579Z,15.20
2022-09-16T07:28:56.024Z,15.00
2022-09-16T07:31:25.603Z,15.00
2022-09-16T07:33:56.072Z,14.80
2022-09-16T07:36:27.077Z,15.00
2022-09-16T07:38:57.224Z,15.00
2022-09-16T07:41:29.786Z,14.70
2022-09-16T07:43:59.275Z,14.90
2022-09-16T07:46:28.269Z,15.30
2022-09-16T07:48:55.971Z,15.50
2022-09-16T07:51:24.698Z,15.60
2022-09-16T07:54:03.518Z,15.70
2022-09-16T07:56:34.259Z,15.90
2022-09-16T07:59:02.655Z,15.50
2022-09-16T08:01:31.202Z,14.60
2022-09-16T08:03:59.640Z,14.10
2022-09-16T08:06:28.991Z,14.10
2022-09-16T08:08:59.757Z,14.70
2022-09-16T08:11:32.456Z,15.30
2022-09-16T08:14:00.212Z,15.60
2022-09-16T08:16:27.234Z,15.80
2022-09-16T08:18:56.392Z,16.10
2022-09-16T08:21:25.866Z,16.50
2022-09-16T08:23:52.708Z,16.60
2022-09-16T08:26:20.618Z,16.20
2022-09-16T08:29:10.108Z,16.30
2022-09-16T08:31:36.487Z,16.60
2022-09-16T08:34:03.639Z,16.60
2022-09-16T08:36:30.316Z,16.50
2022-09-16T08:38:57.331Z,16.50
2022-09-16T08:41:32.536Z,16.60
2022-09-16T08:44:19.914Z,16.20
2022-09-16T08:46:51.825Z,16.30
2022-09-16T08:49:32.606Z,16.30
2022-09-16T08:52:03.280Z,16.60
2022-09-16T08:54:50.921Z,16.90
2022-09-16T08:57:21.361Z,16.70
2022-09-16T08:59:56.180Z,16.70
2022-09-16T09:02:56.021Z,17.40
2022-09-16T09:05:56.210Z,17.40
2022-09-16T09:08:43.857Z,17.60
2022-09-16T09:11:20.368Z,17.40
2022-09-16T09:14:20.708Z,17.20
2022-09-16T09:17:37.049Z,16.90
2022-09-16T09:20:33.172Z,16.60
2022-09-16T09:23:35.432Z,15.90
2022-09-16T09:26:11.808Z,15.80
2022-09-16T09:29:16.880Z,16.00
2022-09-16T09:32:15.353Z,16.00
2022-09-16T09:35:03.992Z,16.10
2022-09-16T09:37:33.948Z,16.10
2022-09-16T09:40:08.332Z,15.90
2022-09-16T09:43:07.553Z,16.20
2022-09-16T09:45:41.329Z,16.60
2022-09-16T09:48:21.747Z,17.10
2022-09-16T09:50:49.789Z,17.60
2022-09-16T09:53:25.491Z,18.00
2022-09-16T09:55:59.004Z,18.40
2022-09-16T09:58:38.249Z,18.20
2022-09-16T10:01:05.135Z,17.60
2022-09-16T10:03:32.122Z,17.50
2022-09-16T10:05:58.907Z,17.80
2022-09-16T10:08:35.980Z,17.60
2022-09-16T10:11:14.492Z,17.80
2022-09-16T10:13:55.402Z,17.60
2022-09-16T10:16:27.118Z,17.40
2022-09-16T10:19:04.194Z,16.90
2022-09-16T10:21:49.492Z,17.20
2022-09-16T10:24:36.980Z,17.70
2022-09-16T10:27:21.094Z,17.50
2022-09-16T10:29:48.972Z,17.30
2022-09-16T10:32:18.663Z,17.00
2022-09-16T10:34:46.761Z,17.50
2022-09-16T10:37:13.464Z,17.80
2022-09-16T10:39:52.659Z,17.60
2022-09-16T10:42:21.024Z,17.20
2022-09-16T10:44:51.197Z,16.80
2022-09-16T10:47:25.518Z,16.70
2022-09-16T10:50:05.297Z,16.50
2022-09-16T10:52:42.356Z,16.40
2022-09-16T10:55:38.605Z,16.80
2022-09-16T10:58:09.391Z,16.90
2022-09-16T11:00:45.907Z,16.80
2022-09-16T11:03:34.747Z,16.80
2022-09-16T11:06:31.063Z,17.00
2022-09-16T11:09:16.569Z,17.10
2022-09-16T11:12:00.301Z,17.20
2022-09-16T11:14:42.498Z,17.30
2022-09-16T11:17:36.479Z,17.50
2022-09-16T11:20:17.682Z,17.30
2022-09-16T11:23:18.369Z,17.40
2022-09-16T11:25:59.737Z,17.40
2022-09-16T11:28:57.767Z,17.30
2022-09-16T11:32:15.800Z,17.60
2022-09-16T11:34:52.723Z,17.80
2022-09-16T11:37:28.773Z,17.80
2022-09-16T11:40:32.945Z,17.20
2022-09-16T11:43:36.560Z,16.70
2022-09-16T11:46:42.967Z,16.30
2022-09-16T11:49:19.243Z,16.50
2022-09-16T11:52:22.959Z,16.30
2022-09-16T11:55:09.845Z,16.30
2022-09-16T11:57:41.630Z,17.30
2022-09-16T12:00:13.152Z,17.00
2022-09-16T12:02:55.712Z,16.40
2022-09-16T12:05:30.150Z,15.90
2022-09-16T12:08:23.497Z,15.60
2022-09-16T12:10:56.055Z,14.20
2022-09-16T12:13:28.398Z,13.50
2022-09-16T12:15:59.336Z,13.20
2022-09-16T12:18:37.619Z,13.20
2022-09-16T12:21:16.323Z,13.50
2022-09-16T12:23:55.612Z,13.90
2022-09-16T12:26:29.360Z,14.30
2022-09-16T12:29:21.451Z,14.70
2022-09-16T12:31:54.999Z,15.10
2022-09-16T12:34:26.553Z,15.50
2022-09-16T12:37:16.969Z,15.60
2022-09-16T12:39:43.776Z,15.80
2022-09-16T12:42:25.568Z,16.00
2022-09-16T12:45:11.088Z,16.30
2022-09-16T12:47:53.076Z,17.10
2022-09-16T12:50:24.241Z,17.40
2022-09-16T12:53:25.260Z,17.40
2022-09-16T12:56:08.937Z,17.60
2022-09-16T12:59:01.811Z,17.70
2022-09-16T13:01:37.162Z,18.20
2022-09-16T13:04:20.262Z,18.10
2022-09-16T13:06:52.814Z,18.00
2022-09-16T13:09:27.731Z,18.20
2022-09-16T13:14:56.336Z,18.70
2022-09-16T13:17:38.428Z,18.60
2022-09-16T13:20:34.597Z,18.70
2022-09-16T13:23:14.045Z,18.30
2022-09-16T13:25:55.551Z,18.30
2022-09-16T13:28:37.472Z,18.50
2022-09-16T13:31:14.273Z,18.90
2022-09-16T13:33:43.935Z,18.90
2022-09-16T13:36:19.183Z,19.30
2022-09-16T13:38:51.520Z,19.20
2022-09-16T13:41:38.115Z,19.50
2022-09-16T13:44:26.764Z,18.90
2022-09-16T13:46:53.691Z,18.60
2022-09-16T13:49:25.823Z,18.70
2022-09-16T13:51:52.812Z,19.00
2022-09-16T13:54:26.212Z,19.30
2022-09-16T13:56:58.672Z,18.70
2022-09-16T14:02:42.065Z,17.80
2022-09-16T14:05:32.395Z,18.00
2022-09-16T14:08:35.106Z,18.00
2022-09-16T14:11:11.858Z,17.70
2022-09-16T14:13:45.555Z,17.20
2022-09-16T14:16:20.134Z,16.80
2022-09-16T14:19:24.824Z,16.50
2022-09-16T14:22:10.598Z,15.90
2022-09-16T14:24:39.976Z,14.90
2022-09-16T14:27:34.087Z,13.90
2022-09-16T14:30:03.602Z,13.20
2022-09-16T14:32:33.165Z,13.00
2022-09-16T14:35:03.858Z,13.20
2022-09-16T14:37:32.120Z,13.30
2022-09-16T14:40:07.473Z,13.30
2022-09-16T14:42:34.384Z,13.30
2022-09-16T14:45:01.119Z,13.20
2022-09-16T14:47:51.185Z,13.00
2022-09-16T14:50:26.231Z,12.80
2022-09-16T14:52:55.802Z,12.60
2022-09-16T14:55:27.303Z,12.70
2022-09-16T14:57:54.051Z,12.70
2022-09-16T15:00:21.157Z,12.80
2022-09-16T15:03:20.111Z,12.90
2022-09-16T15:05:47.571Z,13.00
2022-09-16T15:08:32.520Z,13.20
2022-09-16T15:11:04.151Z,13.30
2022-09-16T15:13:37.035Z,13.70
2022-09-16T15:16:11.832Z,14.60
2022-09-16T15:18:53.568Z,15.50
2022-09-16T15:21:30.372Z,16.00
2022-09-16T15:24:01.888Z,16.20
2022-09-16T15:26:42.860Z,16.30
2022-09-16T15:29:18.328Z,16.40
2022-09-16T15:31:45.732Z,15.80
2022-09-16T15:34:24.030Z,15.50
2022-09-16T15:36:59.910Z,15.70
2022-09-16T15:39:32.480Z,16.10
2022-09-16T15:42:11.427Z,16.40
2022-09-16T15:45:00.134Z,16.50
2022-09-16T15:47:32.026Z,16.70
2022-09-16T15:49:58.598Z,16.70
2022-09-16T15:52:25.416Z,16.60
2022-09-16T15:55:05.161Z,16.60
2022-09-16T15:57:42.307Z,16.40
2022-09-16T16:00:16.245Z,16.00
2022-09-16T16:03:15.868Z,15.70
2022-09-16T16:05:51.468Z,15.80
2022-09-16T16:08:44.942Z,15.90
2022-09-16T16:11:14.405Z,15.70
2022-09-16T16:13:42.266Z,15.60
2022-09-16T16:16:09.773Z,15.40
2022-09-16T16:18:37.887Z,15.30
2022-09-16T16:21:09.609Z,15.20
2022-09-16T16:23:36.950Z,15.20
2022-09-16T16:26:08.496Z,15.20
2022-09-16T16:28:36.138Z,15.00
2022-09-16T16:31:17.804Z,15.00
2022-09-16T16:33:46.695Z,15.00
2022-09-16T16:36:17.747Z,14.90
2022-09-16T16:38:46.186Z,14.90
2022-09-16T16:41:13.527Z,14.80
2022-09-16T16:43:40.512Z,14.80
2022-09-16T16:46:07.371Z,14.80
2022-09-16T16:48:34.182Z,14.70
2022-09-16T16:51:03.708Z,14.70
2022-09-16T16:53:31.039Z,14.60
2022-09-16T16:56:15.123Z,14.70
2022-09-16T16:58:43.042Z,14.50
2022-09-16T17:01:16.172Z,14.40
2022-09-16T17:03:49.186Z,14.40
2022-09-16T17:06:17.008Z,14.40
2022-09-16T17:08:43.739Z,14.30
2022-09-16T17:11:13.163Z,14.30
2022-09-16T17:13:42.061Z,14.30
2022-09-16T17:16:10.462Z,14.30
2022-09-16T17:18:38.660Z,14.20
2022-09-16T17:21:07.768Z,14.20
2022-09-16T17:23:35.248Z,14.20
2022-09-16T17:26:11.260Z,14.10
2022-09-16T17:28:40.363Z,14.00
2022-09-16T17:31:24.568Z,14.00
2022-09-16T17:34:02.818Z,14.00
2022-09-16T17:36:38.320Z,14.00
2022-09-16T17:39:15.658Z,13.90
2022-09-16T17:41:49.745Z,13.90
2022-09-16T17:44:20.408Z,13.80
2022-09-16T17:46:48.873Z,13.80
2022-09-16T17:49:26.383Z,13.80
2022-09-16T17:51:55.683Z,13.80
2022-09-16T17:54:28.660Z,13.80
2022-09-16T17:56:56.905Z,13.80
2022-09-16T17:59:25.939Z,13.80
2022-09-16T18:01:54.999Z,13.80
2022-09-16T18:04:22.136Z,13.80
2022-09-16T18:06:48.802Z,13.80
2022-09-16T18:09:18.511Z,13.70
2022-09-16T18:11:45.793Z,13.70
2022-09-16T18:14:13.762Z,13.70
2022-09-16T18:16:41.129Z,13.70
2022-09-16T18:19:08.525Z,13.70
2022-09-16T18:21:36.781Z,13.70
2022-09-16T18:24:05.250Z,13.70
2022-09-16T18:26:32.060Z,13.70
2022-09-16T18:29:10.920Z,13.60
2022-09-16T18:31:44.061Z,13.60
2022-09-16T18:34:11.859Z,13.60
2022-09-16T18:36:39.406Z,13.60
2022-09-16T18:39:07.849Z,13.50
2022-09-16T18:41:38.059Z,13.40
2022-09-16T18:44:07.832Z,13.30
2022-09-16T18:46:37.316Z,13.10
2022-09-16T18:49:04.817Z,13.00
2022-09-16T18:51:32.977Z,12.70
2022-09-16T18:54:03.872Z,12.40
2022-09-16T18:56:32.232Z,12.20
2022-09-16T18:59:22.040Z,12.10
2022-09-16T19:01:51.977Z,12.00
2022-09-16T19:04:21.289Z,11.90
2022-09-16T19:06:50.545Z,11.90
2022-09-16T19:09:19.457Z,11.80
2022-09-16T19:11:46.357Z,11.70
2022-09-16T19:14:13.891Z,11.70
2022-09-16T19:16:45.125Z,11.60
2022-09-16T19:19:13.786Z,11.50
2022-09-16T19:21:42.050Z,11.50
2022-09-16T19:24:14.017Z,11.50
2022-09-16T19:26:41.310Z,11.50
2022-09-16T19:29:09.178Z,11.40
2022-09-16T19:31:38.677Z,11.40
2022-09-16T19:34:05.980Z,11.40
2022-09-16T19:36:34.685Z,11.50
2022-09-16T19:39:01.531Z,11.40
2022-09-16T19:41:30.974Z,11.40
2022-09-16T19:43:59.692Z,11.30
2022-09-16T19:46:28.147Z,11.30
2022-09-16T19:48:55.382Z,11.30
2022-09-16T19:51:23.780Z,11.30
2022-09-16T19:53:52.143Z,11.30
2022-09-16T19:56:24.966Z,11.30
2022-09-16T19:58:52.774Z,11.30
2022-09-16T20:01:28.301Z,11.30
2022-09-16T20:03:55.673Z,11.30
2022-09-16T20:06:38.768Z,11.30
2022-09-16T20:09:08.658Z,11.30
2022-09-16T20:11:38.046Z,11.30
2022-09-16T20:14:12.892Z,11.20
2022-09-16T20:16:40.399Z,11.20
2022-09-16T20:19:11.067Z,11.20
2022-09-16T20:21:38.460Z,11.10
2022-09-16T20:24:06.916Z,11.10
2022-09-16T20:26:35.123Z,11.10
2022-09-16T20:29:02.766Z,11.10
2022-09-16T20:31:32.570Z,11.00
2022-09-16T20:33:59.672Z,11.10
2022-09-16T20:36:30.435Z,11.00
2022-09-16T20:38:59.879Z,11.00
2022-09-16T20:41:29.345Z,11.00
2022-09-16T20:43:56.335Z,11.00
2022-09-16T20:46:30.313Z,11.00
2022-09-16T20:49:01.730Z,11.00
2022-09-16T20:51:33.655Z,11.00
2022-09-16T20:54:07.103Z,11.00
2022-09-16T20:56:38.318Z,11.00
2022-09-16T20:59:10.636Z,11.00
2022-09-16T21:01:39.182Z,11.00
2022-09-16T21:04:20.381Z,11.00
2022-09-16T21:06:47.398Z,11.00
2022-09-16T21:09:32.376Z,11.00
2022-09-16T21:12:40.298Z,11.00
2022-09-16T21:15:43.035Z,11.00
2022-09-16T21:18:57.297Z,11.10
2022-09-16T21:21:34.821Z,11.00
2022-09-16T21:25:11.274Z,11.00
2022-09-16T21:27:47.501Z,11.00
2022-09-16T21:30:14.563Z,11.00
2022-09-16T21:32:43.098Z,11.00
2022-09-16T21:35:10.280Z,11.00
2022-09-16T21:37:36.961Z,11.00
2022-09-16T21:40:03.935Z,11.00
2022-09-16T21:42:31.038Z,11.00
2022-09-16T21:44:59.835Z,11.00
2022-09-16T21:47:26.536Z,11.00
2022-09-16T21:49:53.166Z,11.00
2022-09-16T21:52:20.487Z,10.90
2022-09-16T21:54:47.108Z,10.90
2022-09-16T21:57:14.539Z,10.90
2022-09-16T21:59:41.180Z,10.90
2022-09-16T22:02:07.914Z,10.90
2022-09-16T22:04:34.717Z,10.90
2022-09-16T22:07:01.352Z,10.90
2022-09-16T22:09:28.019Z,11.00
2022-09-16T22:11:55.885Z,11.00
2022-09-16T22:14:22.522Z,11.00
2022-09-16T22:16:49.188Z,11.00
2022-09-16T22:19:18.081Z,11.00
2022-09-16T22:21:47.151Z,11.00
2022-09-16T22:24:16.221Z,11.00
2022-09-16T22:26:43.522Z,11.00
2022-09-16T22:29:12.059Z,11.00
2022-09-16T22:31:41.782Z,11.00
2022-09-16T22:34:09.145Z,11.00
2022-09-16T22:36:37.340Z,11.00
2022-09-16T22:39:11.879Z,11.00
2022-09-16T22:41:38.550Z,11.00
2022-09-16T22:44:05.302Z,11.00
2022-09-16T22:46:35.179Z,11.00
2022-09-16T22:49:01.940Z,11.10
2022-09-16T22:51:29.051Z,11.10
2022-09-16T22:53:56.040Z,11.10
2022-09-16T22:56:25.892Z,11.10
2022-09-16T22:58:57.574Z,11.00
2022-09-16T23:01:26.859Z,11.10
2022-09-16T23:03:58.103Z,11.10
2022-09-16T23:06:26.151Z,11.10
2022-09-16T23:08:53.469Z,11.10
2022-09-16T23:11:23.968Z,11.10
2022-09-16T23:13:52.747Z,11.10
2022-09-16T23:16:26.196Z,11.10
2022-09-16T23:18:54.605Z,11.20
2022-09-16T23:21:22.932Z,11.20
2022-09-16T23:23:53.475Z,11.30
2022-09-16T23:26:22.949Z,11.30
2022-09-16T23:28:54.736Z,11.30
2022-09-16T23:31:24.206Z,11.30
2022-09-16T23:33:51.291Z,11.30
2022-09-16T23:36:18.817Z,11.30
2022-09-16T23:38:46.318Z,11.30
2022-09-16T23:41:19.731Z,11.30
2022-09-16T23:43:47.783Z,11.30
2022-09-16T23:46:16.582Z,11.30
2022-09-16T23:48:44.154Z,11.30
2022-09-16T23:51:12.393Z,11.30
2022-09-16T23:53:39.907Z,11.30
2022-09-16T23:56:11.427Z,11.20
2022-09-16T23:58:39.005Z,11.30
